This demonstration page uses our WeatherBlox Daily Observations layout. Learn more.

39.29038, -76.61219

Hourly Observations for July 30, 2017

Temp ( °F °C ) Dew Point ( °F °C ) Humidity (%) Winds ( mph kmh ) Pressure ( in mb ) Visibility ( mi km ) Precip ( " mm )
12:54 am 00:54 undefined 70 21.1 53 11.7 55 55 undefined N/A 29.91 1013 N/A 0 0
1:54 am 01:54 undefined 69 20.6 54 12.2 59 59 undefined N/A 29.91 1013 N/A 0 0
2:54 am 02:54 undefined 68 20 55 12.8 63 63 undefined N/A 29.91 1013 N/A 0 0
3:54 am 03:54 undefined 68 20 54 12.2 61 61 undefined N/A 29.91 1013 N/A 0 0
4:54 am 04:54 undefined 67 19.4 54 12.2 63 63 undefined N/A 29.94 1014 N/A 0 0
5:54 am 05:54 undefined 67 19.4 54 12.2 63 63 undefined N/A 29.94 1014 N/A 0 0
6:54 am 06:54 undefined 66 18.9 53 11.7 63 63 undefined N/A 29.97 1015 N/A 0 0
7:54 am 07:54 undefined 69 20.6 54 12.2 59 59 undefined N/A 30 1016 N/A 0 0
8:54 am 08:54 undefined 71 21.7 54 12.2 55 55 undefined N/A 30.03 1017 N/A 0 0
9:54 am 09:54 undefined 74 23.3 54 12.2 50 50 undefined N/A 30.03 1017 N/A 0 0
10:54 am 10:54 undefined 76 24.4 53 11.7 45 45 undefined N/A 30.03 1017 N/A 0 0
11:54 am 11:54 undefined 78 25.6 54 12.2 43 43 undefined N/A 30.03 1017 N/A 0 0
12:54 pm 12:54 undefined 79 26.1 53 11.7 41 41 undefined N/A 30 1016 N/A 0 0
1:54 pm 13:54 undefined 81 27.2 52 11.1 37 37 undefined N/A 30.03 1017 N/A 0 0
2:54 pm 14:54 undefined 82 27.8 51 10.6 34 34 undefined N/A 30.03 1017 N/A 0 0
3:54 pm 15:54 undefined 83 28.3 52 11.1 34 34 undefined N/A 30.03 1017 N/A 0 0
4:54 pm 16:54 undefined 83 28.3 52 11.1 34 34 undefined N/A 30 1016 N/A 0 0
5:54 pm 17:54 undefined 83 28.3 52 11.1 34 34 undefined N/A 30 1016 N/A 0 0
6:54 pm 18:54 undefined 82 27.8 53 11.7 37 37 undefined N/A 30 1016 N/A 0 0
7:54 pm 19:54 undefined 81 27.2 55 12.8 41 41 undefined N/A 30.03 1017 N/A 0 0
8:54 pm 20:54 undefined 80 26.7 55 12.8 42 42 undefined N/A 30.03 1017 N/A 0 0
9:54 pm 21:54 undefined 78 25.6 56 13.3 47 47 undefined N/A 30.06 1018 N/A 0 0
10:54 pm 22:54 undefined 76 24.4 58 14.4 54 54 undefined N/A 30.06 1018 N/A 0 0
11:54 pm 23:54 undefined 74 23.3 59 15 60 60 undefined N/A 30.06 1018 N/A 0 0

Powered by AerisWeather